Stena Suede — ZCEF5 — position and weather

sailwx.info

Track history (hours):
 
Tides and Currents Weather Stations Pressure Air Temp Water Temp Dewpoint Dewpoint Depression Visibility Wind Speed Wind Dir Waves Ship Positions

Stena Suede

Last reported at 2014-Oct-21 04:18 UTC. Time now 2014-Oct-23 08:09 UTC.
Position N 39°15' W 010°27'.

Length 274 m; draft 15.6 m.

Type: Tanker. MMSI: 310622000.

Date/timePositionNaut miles runAvg speedWind from/ knotsBaromVisibWave heightAir tempDewpointWater temp
2014-Oct-21 04:18N 39°15' W 010°27'1012.9
2014-Oct-21 03:32N 39°05' W 010°29'1312.5
2014-Oct-21 02:29N 38°52' W 010°31'1112.2
2014-Oct-21 01:33N 38°41' W 010°33'1312.3
2014-Oct-21 00:29N 38°28' W 010°35'1212.7
2014-Oct-20 23:33N 38°16' W 010°38'1212.3
2014-Oct-20 22:33N 38°04' W 010°39'1512.1
2014-Oct-20 21:18N 37°49' W 010°42'1012.7
2014-Oct-20 20:33N 37°39' W 010°43'1312.8
2014-Oct-20 19:33N 37°27' W 010°45'1212.3
2014-Oct-20 18:32N 37°14' W 010°48'  
Track history (hours):
 
Tides and Currents Weather Stations Pressure Air Temp Water Temp Dewpoint Dewpoint Depression Visibility Wind Speed Wind Dir Waves Ship Positions

Stena Suede

Last reported at 2014-Oct-21 04:18 UTC. Time now 2014-Oct-23 08:09 UTC.
Position N 39°15' W 010°27'.

Length 274 m; draft 15.6 m.

Type: Tanker. MMSI: 310622000.

Date/timePositionNaut miles runAvg speedWind from/ knotsBaromVisibWave heightAir tempDewpointWater temp
2014-Oct-21 04:18N 39°15' W 010°27'1012.9
2014-Oct-21 03:32N 39°05' W 010°29'1312.5
2014-Oct-21 02:29N 38°52' W 010°31'1112.2
2014-Oct-21 01:33N 38°41' W 010°33'1312.3
2014-Oct-21 00:29N 38°28' W 010°35'1212.7
2014-Oct-20 23:33N 38°16' W 010°38'1212.3
2014-Oct-20 22:33N 38°04' W 010°39'1512.1
2014-Oct-20 21:18N 37°49' W 010°42'1012.7
2014-Oct-20 20:33N 37°39' W 010°43'1312.8
2014-Oct-20 19:33N 37°27' W 010°45'1212.3
2014-Oct-20 18:32N 37°14' W 010°48'  

Dump ship's entire track history